createdAt,value
2019-03-29T00:00:14.086Z,0.60
2019-03-29T00:02:49.109Z,0.40
2019-03-29T00:05:22.483Z,0.50
2019-03-29T00:07:55.917Z,0.50
2019-03-29T00:13:33.848Z,0.50
2019-03-29T00:16:07.270Z,0.30
2019-03-29T00:18:40.672Z,0.30
2019-03-29T00:21:14.121Z,0.10
2019-03-29T00:26:44.778Z,0.20
2019-03-29T00:29:40.926Z,0.00
2019-03-29T00:32:15.401Z,-0.10
2019-03-29T00:34:48.800Z,0.10
2019-03-29T00:37:22.158Z,0.00
2019-03-29T00:39:55.537Z,0.20
2019-03-29T00:42:28.900Z,0.10
2019-03-29T00:45:02.183Z,-0.10
2019-03-29T00:47:35.634Z,0.00
2019-03-29T00:50:09.139Z,0.00
2019-03-29T00:52:45.845Z,0.10
2019-03-29T00:55:19.322Z,-0.10
2019-03-29T00:57:52.712Z,0.00
2019-03-29T01:00:26.121Z,0.20
2019-03-29T01:03:00.706Z,0.20
2019-03-29T01:05:40.279Z,0.10
2019-03-29T01:08:20.468Z,-0.20
2019-03-29T01:10:53.887Z,-0.20
2019-03-29T01:13:27.336Z,-0.10
2019-03-29T01:16:01.174Z,-0.20
2019-03-29T01:18:35.200Z,-0.10
2019-03-29T01:24:47.030Z,0.20
2019-03-29T01:27:21.629Z,0.10
2019-03-29T01:33:34.008Z,0.00
2019-03-29T01:36:08.736Z,0.00
2019-03-29T01:38:42.255Z,0.00
2019-03-29T01:41:15.669Z,0.00
2019-03-29T01:43:49.077Z,0.00
2019-03-29T01:46:22.489Z,-0.20
2019-03-29T01:48:55.816Z,-0.20
2019-03-29T01:54:38.148Z,0.00
2019-03-29T01:57:11.540Z,-0.10
2019-03-29T01:59:44.993Z,0.00
2019-03-29T02:02:20.262Z,0.00
2019-03-29T02:08:36.025Z,0.00
2019-03-29T02:13:59.606Z,-0.30
2019-03-29T02:16:33.050Z,-0.50
2019-03-29T02:19:06.444Z,-0.30
2019-03-29T02:21:40.679Z,-0.50
2019-03-29T02:24:14.057Z,-0.60
2019-03-29T02:26:47.410Z,-0.50
2019-03-29T02:29:20.802Z,-0.40
2019-03-29T02:31:54.233Z,-0.40
2019-03-29T02:34:27.728Z,-0.40
2019-03-29T02:39:58.910Z,-0.50
2019-03-29T02:42:32.239Z,-0.50
2019-03-29T02:45:06.689Z,-0.50
2019-03-29T02:47:40.114Z,-0.50
2019-03-29T02:50:13.747Z,-0.50
2019-03-29T02:56:32.288Z,-0.30
2019-03-29T02:59:05.662Z,-0.50
2019-03-29T03:01:39.106Z,-0.50
2019-03-29T03:07:50.674Z,-0.50
2019-03-29T03:10:31.670Z,-0.70
2019-03-29T03:13:05.116Z,-0.60
2019-03-29T03:18:40.887Z,-0.60
2019-03-29T03:21:21.844Z,-0.70
2019-03-29T03:23:52.299Z,-0.70
2019-03-29T03:29:48.098Z,-0.70
2019-03-29T03:32:20.977Z,-0.60
2019-03-29T03:34:54.354Z,-0.50
2019-03-29T03:37:27.884Z,-0.70
2019-03-29T03:43:39.374Z,-0.70
2019-03-29T03:46:12.828Z,-0.80
2019-03-29T03:48:46.296Z,-0.70
2019-03-29T03:51:19.915Z,-0.70
2019-03-29T03:53:53.610Z,-0.70
2019-03-29T03:56:29.851Z,-0.70
2019-03-29T03:59:04.126Z,-0.90
2019-03-29T04:01:38.418Z,-0.90
2019-03-29T04:07:09.882Z,-0.70
2019-03-29T04:09:50.187Z,-0.80
2019-03-29T04:12:19.451Z,-1.00
2019-03-29T04:14:52.821Z,-0.80
2019-03-29T04:17:26.260Z,-1.20
2019-03-29T04:19:59.677Z,-1.20
2019-03-29T04:22:33.908Z,-1.00
2019-03-29T04:25:08.869Z,-0.90
2019-03-29T04:27:42.338Z,-0.90
2019-03-29T04:30:15.881Z,-0.90
2019-03-29T04:32:49.354Z,-0.80
2019-03-29T04:35:22.736Z,-0.70
2019-03-29T04:37:59.202Z,-0.70
2019-03-29T04:40:32.586Z,-0.70
2019-03-29T04:43:06.002Z,-0.60
2019-03-29T04:45:39.398Z,-0.80
2019-03-29T04:48:12.889Z,-0.60
2019-03-29T04:50:46.282Z,-0.60
2019-03-29T04:53:19.741Z,-0.50
2019-03-29T04:55:53.088Z,-0.70
2019-03-29T04:58:26.528Z,-0.60
2019-03-29T05:01:00.025Z,-0.40
2019-03-29T05:03:39.529Z,-0.50
2019-03-29T05:06:45.042Z,-0.50
2019-03-29T05:09:18.475Z,-0.40
2019-03-29T05:14:31.658Z,-0.10
2019-03-29T05:17:05.097Z,-0.10
2019-03-29T05:19:38.429Z,0.00
2019-03-29T05:22:11.964Z,0.00
2019-03-29T05:24:45.353Z,0.20
2019-03-29T05:30:46.494Z,0.30
2019-03-29T05:33:19.900Z,0.50
2019-03-29T05:35:53.278Z,0.70
2019-03-29T05:38:28.526Z,0.80
2019-03-29T05:41:03.097Z,1.00
2019-03-29T05:43:39.248Z,1.20
2019-03-29T05:46:12.672Z,1.10
2019-03-29T05:48:46.109Z,1.20
2019-03-29T05:51:19.502Z,1.10
2019-03-29T05:53:56.762Z,1.30
2019-03-29T05:56:31.683Z,1.50
2019-03-29T05:59:05.115Z,1.60
2019-03-29T06:01:39.251Z,1.60
2019-03-29T06:10:48.198Z,1.80
2019-03-29T06:13:12.465Z,2.00
2019-03-29T06:15:45.815Z,2.20
2019-03-29T06:18:19.253Z,2.40
2019-03-29T06:20:52.640Z,2.40
2019-03-29T06:23:26.066Z,2.50
2019-03-29T06:25:59.415Z,2.50
2019-03-29T06:28:33.709Z,2.70
2019-03-29T06:31:07.176Z,2.80
2019-03-29T06:36:45.218Z,3.00
2019-03-29T06:39:21.325Z,3.10
2019-03-29T06:41:55.018Z,3.20
2019-03-29T06:44:37.808Z,3.30
2019-03-29T06:47:11.220Z,3.40
2019-03-29T06:52:49.347Z,3.70
2019-03-29T06:55:23.591Z,3.80
2019-03-29T06:57:57.489Z,4.00
2019-03-29T07:00:47.250Z,4.10
2019-03-29T07:03:20.739Z,4.20
2019-03-29T07:08:50.200Z,4.50
2019-03-29T07:11:23.867Z,4.60
2019-03-29T07:13:58.231Z,4.80
2019-03-29T07:16:31.717Z,5.10
2019-03-29T07:19:05.276Z,5.20
2019-03-29T07:21:39.339Z,5.40
2019-03-29T07:24:12.822Z,5.70
2019-03-29T07:26:46.226Z,5.90
2019-03-29T07:29:21.668Z,5.90
2019-03-29T07:31:57.118Z,6.00
2019-03-29T07:34:31.493Z,6.10
2019-03-29T07:37:08.444Z,6.20
2019-03-29T07:39:41.828Z,6.30
2019-03-29T07:42:15.273Z,6.50
2019-03-29T07:44:48.637Z,6.60
2019-03-29T07:47:22.001Z,6.60
2019-03-29T07:49:55.389Z,6.80
2019-03-29T07:52:28.961Z,6.90
2019-03-29T07:55:02.459Z,7.00
2019-03-29T07:57:35.821Z,7.10
2019-03-29T08:00:09.658Z,7.10
2019-03-29T08:02:43.618Z,7.30
2019-03-29T08:05:17.909Z,7.40
2019-03-29T08:10:44.540Z,7.40
2019-03-29T08:13:18.004Z,7.50
2019-03-29T08:15:51.412Z,7.50
2019-03-29T08:18:25.995Z,7.60
2019-03-29T08:21:15.915Z,7.80
2019-03-29T08:23:49.283Z,7.90
2019-03-29T08:26:22.818Z,8.00
2019-03-29T08:28:56.157Z,8.10
2019-03-29T08:31:29.539Z,8.20
2019-03-29T08:34:05.644Z,8.30
2019-03-29T08:36:39.059Z,8.50
2019-03-29T08:39:12.416Z,8.50
2019-03-29T08:41:54.479Z,8.40
2019-03-29T08:44:20.901Z,8.40
2019-03-29T08:46:54.328Z,8.40
2019-03-29T08:49:28.688Z,8.30
2019-03-29T08:52:02.101Z,8.30
2019-03-29T08:54:35.511Z,8.40
2019-03-29T08:57:10.810Z,8.40
2019-03-29T08:59:44.318Z,8.40
2019-03-29T09:02:17.771Z,8.30
2019-03-29T09:07:56.814Z,8.40
2019-03-29T09:10:31.555Z,8.50
2019-03-29T09:13:07.957Z,8.60
2019-03-29T09:15:41.382Z,8.80
2019-03-29T09:18:15.187Z,8.80
2019-03-29T09:20:48.670Z,8.90
2019-03-29T09:23:23.191Z,9.10
2019-03-29T09:25:56.620Z,9.20
2019-03-29T09:28:32.713Z,9.30
2019-03-29T09:31:05.123Z,9.50
2019-03-29T09:33:38.580Z,9.40
2019-03-29T09:36:11.968Z,9.50
2019-03-29T09:38:45.390Z,9.60
2019-03-29T09:41:18.877Z,9.70
2019-03-29T09:43:54.277Z,9.50
2019-03-29T09:46:27.456Z,9.70
2019-03-29T09:49:00.904Z,9.40
2019-03-29T09:51:36.059Z,9.60
2019-03-29T09:54:09.299Z,9.70
2019-03-29T09:56:42.668Z,9.60
2019-03-29T09:59:16.577Z,9.70
2019-03-29T10:01:53.663Z,9.70
2019-03-29T10:04:25.130Z,9.90
2019-03-29T10:06:58.528Z,9.80
2019-03-29T10:09:31.947Z,10.00
2019-03-29T10:12:05.556Z,9.90
2019-03-29T10:14:41.890Z,9.90
2019-03-29T10:17:15.332Z,9.90
2019-03-29T10:19:50.044Z,9.90
2019-03-29T10:22:23.607Z,9.90
2019-03-29T10:24:57.007Z,10.10
2019-03-29T10:27:31.980Z,10.10
2019-03-29T10:33:23.933Z,10.20
2019-03-29T10:35:57.478Z,10.10
2019-03-29T10:38:32.089Z,10.10
2019-03-29T10:41:05.502Z,10.20
2019-03-29T10:44:03.907Z,10.20
2019-03-29T10:46:40.936Z,10.10
2019-03-29T10:49:17.442Z,10.10
2019-03-29T10:52:01.597Z,10.20
2019-03-29T10:54:35.235Z,10.20
2019-03-29T10:57:08.568Z,10.50
2019-03-29T10:59:48.080Z,10.70
2019-03-29T11:02:21.547Z,10.50
2019-03-29T11:04:55.045Z,10.30
2019-03-29T11:07:28.719Z,10.50
2019-03-29T11:13:18.997Z,10.80
2019-03-29T11:15:52.368Z,11.00
2019-03-29T11:18:26.013Z,11.00
2019-03-29T11:21:09.467Z,11.10
2019-03-29T11:23:42.971Z,11.10
2019-03-29T11:26:18.670Z,11.40
2019-03-29T11:28:53.055Z,11.20
2019-03-29T11:31:26.602Z,11.00
2019-03-29T11:34:00.193Z,11.10
2019-03-29T11:36:33.656Z,11.10
2019-03-29T11:39:09.020Z,11.10
2019-03-29T11:41:42.464Z,11.30
2019-03-29T11:44:15.918Z,11.60
2019-03-29T11:46:50.286Z,11.80
2019-03-29T11:49:23.758Z,11.90
2019-03-29T11:51:57.195Z,11.50
2019-03-29T11:54:30.597Z,11.40
2019-03-29T11:57:04.041Z,11.00
2019-03-29T11:59:40.201Z,11.00
2019-03-29T12:02:12.501Z,11.00
2019-03-29T12:04:47.486Z,11.10
2019-03-29T12:07:20.841Z,11.30
2019-03-29T12:09:54.278Z,11.30
2019-03-29T12:12:27.840Z,11.40
2019-03-29T12:15:01.240Z,11.70
2019-03-29T12:17:34.631Z,11.70
2019-03-29T12:20:08.971Z,11.70
2019-03-29T12:22:42.390Z,11.60
2019-03-29T12:25:18.387Z,11.50
2019-03-29T12:31:33.973Z,11.50
2019-03-29T12:34:07.348Z,11.40
2019-03-29T12:36:40.783Z,11.30
2019-03-29T12:39:15.607Z,11.50
2019-03-29T12:41:49.009Z,11.50
2019-03-29T12:44:22.426Z,11.60
2019-03-29T12:46:55.873Z,11.80
2019-03-29T12:49:29.318Z,11.60
2019-03-29T12:52:02.981Z,11.70
2019-03-29T12:54:36.459Z,11.70
2019-03-29T12:57:09.991Z,11.40
2019-03-29T12:59:43.397Z,11.40
2019-03-29T13:02:19.242Z,11.70
2019-03-29T13:04:52.678Z,11.80
2019-03-29T13:07:26.077Z,12.10
2019-03-29T13:10:01.458Z,12.00
2019-03-29T13:12:34.678Z,12.00
2019-03-29T13:15:09.801Z,12.00
2019-03-29T13:24:07.643Z,12.20
2019-03-29T13:26:41.060Z,12.10
2019-03-29T13:29:14.449Z,12.10
2019-03-29T13:39:09.071Z,11.90
2019-03-29T13:41:52.841Z,11.80
2019-03-29T13:44:28.260Z,11.90
2019-03-29T13:47:04.343Z,11.50
2019-03-29T13:49:37.735Z,11.50
2019-03-29T13:56:01.171Z,11.80
2019-03-29T13:58:37.336Z,11.70
2019-03-29T14:01:10.866Z,11.90
2019-03-29T14:03:44.368Z,11.70
2019-03-29T14:06:17.826Z,11.70
2019-03-29T14:08:51.200Z,11.60
2019-03-29T14:11:24.892Z,11.60
2019-03-29T14:13:59.313Z,11.40
2019-03-29T14:16:33.818Z,11.50
2019-03-29T14:19:07.229Z,11.30
2019-03-29T14:21:40.706Z,11.30
2019-03-29T14:24:14.189Z,11.20
2019-03-29T14:26:47.859Z,11.30
2019-03-29T14:29:21.376Z,11.40
2019-03-29T14:31:54.810Z,11.40
2019-03-29T14:34:28.238Z,11.30
2019-03-29T14:37:01.680Z,11.20
2019-03-29T14:39:35.109Z,11.20
2019-03-29T14:42:08.679Z,10.90
2019-03-29T14:44:52.251Z,11.00
2019-03-29T14:47:21.481Z,10.90
2019-03-29T14:49:55.996Z,10.90
2019-03-29T14:52:31.187Z,11.00
2019-03-29T14:55:06.373Z,11.00
2019-03-29T14:57:41.916Z,10.80
2019-03-29T15:00:21.406Z,10.70
2019-03-29T15:02:57.016Z,10.70
2019-03-29T15:05:31.388Z,10.70
2019-03-29T15:08:09.866Z,10.60
2019-03-29T15:10:46.213Z,10.60
2019-03-29T15:13:41.430Z,10.50
2019-03-29T15:16:16.835Z,10.40
2019-03-29T15:18:56.819Z,10.50
2019-03-29T15:22:41.104Z,10.40
2019-03-29T15:24:19.912Z,10.40
2019-03-29T15:26:56.370Z,10.20
2019-03-29T15:29:30.215Z,10.20
2019-03-29T15:32:05.241Z,10.20
2019-03-29T15:34:39.899Z,10.20
2019-03-29T15:37:13.572Z,10.20
2019-03-29T15:39:47.143Z,10.30
2019-03-29T15:42:22.099Z,10.30
2019-03-29T15:44:56.215Z,10.30
2019-03-29T15:47:30.124Z,10.20
2019-03-29T15:54:05.010Z,10.30
2019-03-29T15:56:38.885Z,10.30
2019-03-29T15:59:16.053Z,10.20
2019-03-29T16:01:51.221Z,10.10
2019-03-29T16:04:28.814Z,10.20
2019-03-29T16:07:03.116Z,10.10
2019-03-29T16:09:37.911Z,10.10
2019-03-29T16:12:12.271Z,10.00
2019-03-29T16:14:47.060Z,10.00
2019-03-29T16:17:21.338Z,9.90
2019-03-29T16:19:55.483Z,9.90
2019-03-29T16:22:29.158Z,9.80
2019-03-29T16:25:03.039Z,9.80
2019-03-29T16:27:38.315Z,9.80
2019-03-29T16:30:14.487Z,9.70
2019-03-29T16:32:48.688Z,9.70
2019-03-29T16:35:22.641Z,9.70
2019-03-29T16:37:57.823Z,9.60
2019-03-29T16:40:41.103Z,9.60
2019-03-29T16:43:21.346Z,9.50
2019-03-29T16:46:00.014Z,9.50
2019-03-29T16:48:36.923Z,9.50
2019-03-29T16:51:10.715Z,9.40
2019-03-29T16:53:47.924Z,9.40
2019-03-29T16:56:21.425Z,9.40
2019-03-29T16:58:58.736Z,9.30
2019-03-29T17:01:32.618Z,9.30
2019-03-29T17:04:06.439Z,9.30
2019-03-29T17:06:40.039Z,9.20
2019-03-29T17:09:14.433Z,9.20
2019-03-29T17:11:50.707Z,9.10
2019-03-29T17:14:25.515Z,9.10
2019-03-29T17:16:59.627Z,9.00
2019-03-29T17:19:34.288Z,9.00
2019-03-29T17:22:08.214Z,8.90
2019-03-29T17:24:56.111Z,8.90
2019-03-29T17:27:17.917Z,8.90
2019-03-29T17:29:52.617Z,8.90
2019-03-29T17:32:26.653Z,8.90
2019-03-29T17:35:02.220Z,8.80
2019-03-29T17:37:36.224Z,8.80
2019-03-29T17:40:10.944Z,8.80
2019-03-29T17:42:47.155Z,8.70
2019-03-29T17:45:20.891Z,8.70
2019-03-29T17:47:54.991Z,8.70
2019-03-29T17:50:32.024Z,8.70
2019-03-29T17:53:08.983Z,8.70
2019-03-29T17:55:42.845Z,8.70
2019-03-29T17:58:16.246Z,8.60
2019-03-29T18:00:50.201Z,8.70
2019-03-29T18:03:24.891Z,8.70
2019-03-29T18:06:00.062Z,8.70
2019-03-29T18:08:37.982Z,8.70
2019-03-29T18:11:11.420Z,8.70
2019-03-29T18:13:47.638Z,8.70
2019-03-29T18:16:30.451Z,8.80
2019-03-29T18:18:56.174Z,8.80
2019-03-29T18:21:29.635Z,8.80
2019-03-29T18:24:03.138Z,8.70
2019-03-29T18:26:36.544Z,8.70
2019-03-29T18:29:11.245Z,8.70
2019-03-29T18:31:47.815Z,8.70
2019-03-29T18:34:21.424Z,8.70
2019-03-29T18:36:58.843Z,8.60
2019-03-29T18:39:33.622Z,8.60
2019-03-29T18:42:09.611Z,8.50
2019-03-29T18:44:45.247Z,8.50
2019-03-29T18:47:19.402Z,8.50
2019-03-29T18:49:56.389Z,8.50
2019-03-29T18:52:30.124Z,8.40
2019-03-29T18:55:03.909Z,8.30
2019-03-29T18:57:38.150Z,8.30
2019-03-29T19:00:14.159Z,8.10
2019-03-29T19:02:50.219Z,8.10
2019-03-29T19:05:30.737Z,7.90
2019-03-29T19:08:06.393Z,7.80
2019-03-29T19:10:44.095Z,7.80
2019-03-29T19:13:19.394Z,7.70
2019-03-29T19:15:54.711Z,7.60
2019-03-29T19:18:28.907Z,7.50
2019-03-29T19:21:02.266Z,7.40
2019-03-29T19:23:36.474Z,7.30
2019-03-29T19:26:11.665Z,7.30
2019-03-29T19:28:45.746Z,7.20
2019-03-29T19:31:21.546Z,7.10
2019-03-29T19:33:57.283Z,7.00
2019-03-29T19:36:34.388Z,6.90
2019-03-29T19:39:10.060Z,6.80
2019-03-29T19:41:47.619Z,6.80
2019-03-29T19:44:28.792Z,6.70
2019-03-29T19:47:12.867Z,6.60
2019-03-29T19:49:40.543Z,6.20
2019-03-29T19:52:16.017Z,6.30
2019-03-29T19:54:52.087Z,6.20
2019-03-29T19:57:27.742Z,6.10
2019-03-29T20:00:06.164Z,6.10
2019-03-29T20:02:40.198Z,5.80
2019-03-29T20:05:32.925Z,5.70
2019-03-29T20:08:08.318Z,5.80
2019-03-29T20:10:51.266Z,5.70
2019-03-29T20:13:27.719Z,5.70
2019-03-29T20:16:04.571Z,5.40
2019-03-29T20:18:39.923Z,5.40
2019-03-29T20:21:17.121Z,5.40
2019-03-29T20:23:59.773Z,5.30
2019-03-29T20:26:34.621Z,5.30
2019-03-29T20:29:11.307Z,5.30
2019-03-29T20:31:50.005Z,5.20
2019-03-29T20:34:23.159Z,5.00
2019-03-29T20:36:56.706Z,4.90
2019-03-29T20:39:30.527Z,4.90
2019-03-29T20:42:05.144Z,4.90
2019-03-29T20:44:39.713Z,4.90
2019-03-29T20:47:13.115Z,4.90
2019-03-29T20:49:51.705Z,4.70
2019-03-29T20:52:27.119Z,4.80
2019-03-29T20:55:02.970Z,4.80
2019-03-29T20:57:46.378Z,4.80
2019-03-29T21:00:17.512Z,4.80
2019-03-29T21:02:52.409Z,4.80
2019-03-29T21:05:26.713Z,4.80
2019-03-29T21:08:02.118Z,4.60
2019-03-29T21:10:36.935Z,4.80
2019-03-29T21:13:10.450Z,4.90
2019-03-29T21:15:46.635Z,4.80
2019-03-29T21:18:20.643Z,4.90
2019-03-29T21:20:54.118Z,4.80
2019-03-29T21:23:29.275Z,4.80
2019-03-29T21:26:04.193Z,5.00
2019-03-29T21:28:38.274Z,4.90
2019-03-29T21:31:13.879Z,4.90
2019-03-29T21:33:48.510Z,5.00
2019-03-29T21:36:26.117Z,5.10
2019-03-29T21:39:01.588Z,5.00
2019-03-29T21:41:40.833Z,5.10
2019-03-29T21:44:18.537Z,5.20
2019-03-29T21:46:52.137Z,5.00
2019-03-29T21:49:27.967Z,5.20
2019-03-29T21:52:01.348Z,5.30
2019-03-29T21:54:37.164Z,5.20
2019-03-29T21:57:15.317Z,5.30
2019-03-29T21:59:49.414Z,5.40
2019-03-29T22:02:24.463Z,5.40
2019-03-29T22:05:01.204Z,5.40
2019-03-29T22:07:35.522Z,5.50
2019-03-29T22:10:13.033Z,5.50
2019-03-29T22:12:48.054Z,5.50
2019-03-29T22:15:28.475Z,5.60
2019-03-29T22:18:06.783Z,5.60
2019-03-29T22:20:39.196Z,5.60
2019-03-29T22:23:13.319Z,5.70
2019-03-29T22:25:48.716Z,5.60
2019-03-29T22:28:22.705Z,5.70
2019-03-29T22:30:56.365Z,5.80
2019-03-29T22:33:29.966Z,5.80
2019-03-29T22:36:04.275Z,5.90
2019-03-29T22:38:37.666Z,6.00
2019-03-29T22:41:11.325Z,6.10
2019-03-29T22:43:44.700Z,6.10
2019-03-29T22:46:18.487Z,6.10
2019-03-29T22:48:53.334Z,6.20
2019-03-29T22:51:29.612Z,6.10
2019-03-29T22:54:03.720Z,6.10
2019-03-29T22:56:37.952Z,6.00
2019-03-29T22:59:11.589Z,6.10
2019-03-29T23:01:47.539Z,6.00
2019-03-29T23:04:22.111Z,5.90
2019-03-29T23:06:55.911Z,5.60
2019-03-29T23:09:30.646Z,5.50
2019-03-29T23:12:05.127Z,5.30
2019-03-29T23:14:40.998Z,5.20
2019-03-29T23:17:15.558Z,5.20
2019-03-29T23:19:49.019Z,5.10
2019-03-29T23:22:24.060Z,4.90
2019-03-29T23:24:57.642Z,4.80
2019-03-29T23:27:31.258Z,4.80
2019-03-29T23:30:06.415Z,4.80
2019-03-29T23:32:39.808Z,4.70
2019-03-29T23:35:13.462Z,4.60
2019-03-29T23:37:47.332Z,4.60
2019-03-29T23:40:21.339Z,4.50
2019-03-29T23:42:55.296Z,4.50
2019-03-29T23:45:30.006Z,4.30
2019-03-29T23:48:03.392Z,4.20
2019-03-29T23:50:37.143Z,4.10
2019-03-29T23:53:10.487Z,4.20
2019-03-29T23:55:43.945Z,4.10
2019-03-29T23:58:17.418Z,4.10
